Time;durP1;ratioP1;P1;durP2;ratioP2;P2;SDS_P1;SDS_P2;PMS_P1;PMS_P2;Temp;Humidity;BMP_temperature;BMP_pressure;BME280_temperature;BME280_humidity;BME280_pressure;Samples;Min_cycle;Max_cycle;Signal;HPM_P1;HPM_P2
2023/11/10 00:01:38;;;;;;;7.75;2.60;;;;;;;8.84;100.00;99524.13;4934739;29;20051;-67
2023/11/10 00:04:25;;;;;;;5.93;2.83;;;;;;;8.83;100.00;99525.25;4906049;29;20048;-67
2023/11/10 00:07:14;;;;;;;5.30;2.47;;;;;;;8.83;100.00;99525.25;4932886;29;20048;-67
2023/11/10 00:10:07;;;;;;;5.03;2.45;;;;;;;8.82;100.00;99523.59;4921190;29;20460;-67
2023/11/10 00:12:56;;;;;;;6.32;2.53;;;;;;;8.84;100.00;99524.13;4934209;29;20122;-66
2023/11/10 00:15:44;;;;;;;5.35;2.50;;;;;;;8.82;100.00;99518.16;4935229;29;20180;-66
2023/11/10 00:18:32;;;;;;;4.57;2.70;;;;;;;8.81;100.00;99516.56;4934648;29;20389;-67
2023/11/10 00:21:20;;;;;;;5.00;2.17;;;;;;;8.85;100.00;99511.34;4920073;29;20625;-66
2023/11/10 00:24:08;;;;;;;7.28;2.80;;;;;;;8.85;100.00;99506.75;4933210;29;20048;-67
2023/11/10 00:26:57;;;;;;;4.43;2.45;;;;;;;8.85;100.00;99512.19;4936352;28;20572;-68
2023/11/10 00:29:45;;;;;;;4.43;2.30;;;;;;;8.89;100.00;99510.50;4922825;29;20048;-67
2023/11/10 00:32:36;;;;;;;8.15;2.45;;;;;;;8.90;100.00;99508.59;4908572;29;20044;-67
2023/11/10 00:35:24;;;;;;;5.55;2.50;;;;;;;8.90;100.00;99495.81;4937843;29;20047;-67
2023/11/10 00:38:12;;;;;;;5.22;2.30;;;;;;;8.89;100.00;99496.09;4937598;29;20195;-68
2023/11/10 00:41:00;;;;;;;4.00;2.33;;;;;;;8.89;100.00;99491.47;4924355;29;20059;-67
2023/11/10 00:43:49;;;;;;;5.10;2.38;;;;;;;8.90;100.00;99495.81;4925188;29;20058;-67
2023/11/10 00:46:40;;;;;;;3.78;1.98;;;;;;;8.95;100.00;99484.09;4938289;29;20127;-68
2023/11/10 00:49:28;;;;;;;5.07;2.25;;;;;;;8.92;100.00;99485.47;4922840;29;20528;-68
2023/11/10 00:52:17;;;;;;;5.15;2.30;;;;;;;8.95;100.00;99498.47;4936775;29;20420;-68
2023/11/10 00:55:06;;;;;;;4.97;2.03;;;;;;;8.90;100.00;99500.44;4911069;29;20058;-67
2023/11/10 00:57:54;;;;;;;5.15;2.13;;;;;;;8.90;100.00;99503.97;4938613;29;20071;-67
2023/11/10 01:00:43;;;;;;;6.57;2.20;;;;;;;8.90;100.00;99508.59;4924173;29;20043;-67
2023/11/10 01:03:32;;;;;;;5.57;2.33;;;;;;;8.87;100.00;99503.72;4924704;29;20134;-67
2023/11/10 01:06:22;;;;;;;4.57;2.10;;;;;;;8.90;100.00;99500.44;4911922;29;20055;-67
2023/11/10 01:09:12;;;;;;;3.75;2.00;;;;;;;8.86;100.00;99502.13;4923199;29;20092;-67
2023/11/10 01:12:00;;;;;;;5.68;2.60;;;;;;;8.86;100.00;99497.50;4938030;29;20405;-67
2023/11/10 01:14:48;;;;;;;6.65;2.58;;;;;;;8.85;100.00;99498.59;4950842;28;20091;-67
2023/11/10 01:17:37;;;;;;;4.50;1.80;;;;;;;8.88;100.00;99495.31;4937981;29;20497;-67
2023/11/10 01:20:25;;;;;;;3.50;1.65;;;;;;;8.90;100.00;99495.81;4936977;29;20135;-67
2023/11/10 01:23:13;;;;;;;5.10;2.20;;;;;;;8.90;100.00;99482.25;4938089;29;20488;-67
2023/11/10 01:26:01;;;;;;;2.97;1.70;;;;;;;8.91;100.00;99483.03;4923315;29;20138;-66
2023/11/10 01:28:49;;;;;;;6.47;2.30;;;;;;;8.91;100.00;99483.03;4921917;29;20051;-67
2023/11/10 01:31:37;;;;;;;6.65;2.40;;;;;;;8.92;100.00;99477.34;4920198;29;20134;-68
2023/11/10 01:34:25;;;;;;;3.15;1.88;;;;;;;8.95;100.00;99478.66;4937446;29;20062;-68
2023/11/10 01:37:13;;;;;;;3.28;1.88;;;;;;;8.91;100.00;99474.91;4905136;29;20094;-67
2023/11/10 01:40:02;;;;;;;7.15;1.90;;;;;;;8.91;100.00;99472.97;4913992;29;20398;-67
2023/11/10 01:42:50;;;;;;;5.38;2.10;;;;;;;8.90;100.00;99465.94;4949370;28;20497;-67
2023/11/10 01:45:40;;;;;;;8.45;2.40;;;;;;;8.88;100.00;99461.91;4936781;29;20048;-67
2023/11/10 01:48:28;;;;;;;7.88;2.75;;;;;;;8.93;100.00;99461.84;4937028;29;20067;-67
2023/11/10 01:51:16;;;;;;;6.22;2.40;;;;;;;8.90;100.00;99465.94;4935255;29;21491;-68
2023/11/10 01:54:05;;;;;;;6.95;2.13;;;;;;;8.90;100.00;99457.00;4922460;29;20060;-67
2023/11/10 01:56:53;;;;;;;7.40;2.55;;;;;;;8.95;100.00;99451.50;4937355;29;20043;-67
2023/11/10 01:59:41;;;;;;;3.55;1.95;;;;;;;8.90;100.00;99455.09;4923314;29;20040;-67
2023/11/10 02:02:29;;;;;;;7.45;2.63;;;;;;;8.89;100.00;99464.31;4935727;29;20130;-67
2023/11/10 02:05:17;;;;;;;5.55;2.10;;;;;;;8.89;100.00;99452.63;4918322;28;20055;-67
2023/11/10 02:08:10;;;;;;;5.63;2.00;;;;;;;8.90;100.00;99459.72;4931590;28;20052;-67
2023/11/10 02:10:58;;;;;;;5.15;2.15;;;;;;;8.90;100.00;99460.50;4919942;29;20079;-67
2023/11/10 02:13:46;;;;;;;5.15;1.95;;;;;;;8.90;100.00;99452.38;4936176;29;20134;-67
2023/11/10 02:16:34;;;;;;;5.82;2.10;;;;;;;8.86;100.00;99448.59;4915701;29;20098;-67
2023/11/10 02:19:22;;;;;;;2.10;1.70;;;;;;;8.84;100.00;99452.72;4909742;29;20054;-66
2023/11/10 02:22:10;;;;;;;5.32;1.75;;;;;;;8.92;100.00;99452.06;4922490;29;20415;-66
2023/11/10 02:24:58;;;;;;;3.38;1.88;;;;;;;8.90;100.00;99451.56;4911715;29;20048;-67
2023/11/10 02:27:47;;;;;;;3.83;1.77;;;;;;;8.87;100.00;99446.69;4903835;29;20095;-67
2023/11/10 02:30:35;;;;;;;7.50;2.15;;;;;;;8.86;100.00;99443.16;4924803;29;20107;-67
2023/11/10 02:33:23;;;;;;;5.00;1.90;;;;;;;8.89;100.00;99447.22;4922111;29;20054;-67
2023/11/10 02:36:12;;;;;;;4.65;2.03;;;;;;;8.86;100.00;99442.38;4904027;29;20052;-66
2023/11/10 02:39:00;;;;;;;7.13;2.30;;;;;;;8.87;100.00;99450.22;4937396;29;20142;-67
2023/11/10 02:41:52;;;;;;;2.95;1.67;;;;;;;8.85;100.00;99452.44;4936448;29;20060;-67
2023/11/10 02:44:40;;;;;;;3.03;1.60;;;;;;;8.87;100.00;99452.13;4935984;29;20051;-66
2023/11/10 02:47:28;;;;;;;4.13;1.75;;;;;;;8.87;100.00;99458.34;4936146;29;20477;-67
2023/11/10 02:50:16;;;;;;;5.35;2.42;;;;;;;8.85;100.00;99457.88;4908970;29;20054;-67
2023/11/10 02:53:09;;;;;;;3.65;1.70;;;;;;;8.86;100.00;99459.47;4917319;29;20082;-67
2023/11/10 02:55:56;;;;;;;2.17;1.63;;;;;;;8.87;100.00;99466.50;4936466;28;20575;-67
2023/11/10 02:58:45;;;;;;;6.13;2.08;;;;;;;8.85;100.00;99465.19;4924193;28;20058;-67
2023/11/10 03:01:32;;;;;;;4.05;1.90;;;;;;;8.80;100.00;99455.19;4922420;29;20043;-67
2023/11/10 03:04:21;;;;;;;5.70;1.52;;;;;;;8.76;100.00;99451.44;4908740;29;20047;-66
2023/11/10 03:07:10;;;;;;;6.28;1.75;;;;;;;8.80;100.00;99455.19;4951874;28;20047;-67
2023/11/10 03:09:58;;;;;;;3.00;1.60;;;;;;;8.77;100.00;99458.47;4941415;29;20055;-67
2023/11/10 03:12:46;;;;;;;5.55;1.83;;;;;;;8.75;100.00;99455.25;4916810;29;20134;-66
2023/11/10 03:15:34;;;;;;;3.08;1.50;;;;;;;8.74;100.00;99467.22;4906724;29;20059;-67
2023/11/10 03:18:22;;;;;;;4.90;1.70;;;;;;;8.74;100.00;99454.44;4919415;29;20497;-67
2023/11/10 03:21:17;;;;;;;3.78;1.55;;;;;;;8.74;100.00;99459.06;4897585;29;20579;-66
2023/11/10 03:24:05;;;;;;;4.25;1.60;;;;;;;8.78;100.00;99449.25;4929909;29;20044;-67
2023/11/10 03:26:53;;;;;;;3.67;1.55;;;;;;;8.79;100.00;99453.56;4904611;29;20054;-67
2023/11/10 03:29:42;;;;;;;3.00;1.45;;;;;;;8.77;100.00;99447.63;4937880;29;20048;-66
2023/11/10 03:32:32;;;;;;;5.57;1.73;;;;;;;8.73;100.00;99449.28;4907647;29;20140;-67
2023/11/10 03:35:22;;;;;;;3.45;1.70;;;;;;;8.72;100.00;99453.13;4937636;29;20047;-66
2023/11/10 03:38:10;;;;;;;4.18;1.45;;;;;;;8.77;100.00;99447.63;4943504;29;20054;-65
2023/11/10 03:40:59;;;;;;;3.03;1.52;;;;;;;8.73;100.00;99443.84;4929015;28;20051;-65
2023/11/10 03:43:48;;;;;;;4.45;1.52;;;;;;;8.71;100.00;99446.88;4928517;29;20054;-66
2023/11/10 03:46:36;;;;;;;6.22;1.88;;;;;;;8.72;100.00;99456.63;4932622;29;20071;-65
2023/11/10 03:49:24;;;;;;;5.03;1.83;;;;;;;8.73;100.00;99449.28;4953608;29;20567;-65
2023/11/10 03:52:12;;;;;;;4.03;1.67;;;;;;;8.70;100.00;99447.16;4946080;29;20130;-66
2023/11/10 03:55:00;;;;;;;4.18;1.60;;;;;;;8.68;100.00;99450.19;4925094;29;20111;-62
2023/11/10 03:57:48;;;;;;;2.63;1.25;;;;;;;8.68;100.00;99446.63;4924696;29;20166;-64
2023/11/10 04:00:37;;;;;;;2.63;1.30;;;;;;;8.67;100.00;99450.47;4938787;29;20048;-65
2023/11/10 04:03:35;;;;;;;2.72;1.35;;;;;;;8.66;100.00;99448.81;4920241;29;20052;-66
2023/11/10 04:06:23;;;;;;;3.33;1.50;;;;;;;8.68;100.00;99449.34;4916585;29;20054;-66
2023/11/10 04:09:26;;;;;;;3.20;1.77;;;;;;;8.68;100.00;99460.22;4912382;29;20051;-67
2023/11/10 04:12:15;;;;;;;5.65;2.03;;;;;;;8.67;100.00;99462.13;4924174;29;20055;-67
2023/11/10 04:15:04;;;;;;;3.92;1.75;;;;;;;8.65;100.00;99458.09;4912304;29;20050;-67
2023/11/10 04:17:52;;;;;;;6.32;1.90;;;;;;;8.79;100.00;99453.56;4924869;29;20066;-66
2023/11/10 04:20:40;;;;;;;6.72;2.03;;;;;;;8.69;100.00;99459.13;4939572;29;20091;-65
2023/11/10 04:23:28;;;;;;;3.25;1.58;;;;;;;8.68;100.00;99457.50;4925493;29;20075;-67
2023/11/10 04:26:16;;;;;;;4.55;1.63;;;;;;;8.65;100.00;99456.16;4925117;29;20117;-67
2023/11/10 04:29:09;;;;;;;3.75;1.90;;;;;;;8.68;100.00;99465.66;4938370;29;20066;-67
2023/11/10 04:31:57;;;;;;;4.95;2.00;;;;;;;8.67;100.00;99456.69;4928702;29;20512;-67
2023/11/10 04:34:45;;;;;;;6.35;1.58;;;;;;;8.62;100.00;99454.03;4923505;29;20047;-67
2023/11/10 04:37:35;;;;;;;3.60;1.50;;;;;;;8.66;100.00;99459.69;4919913;29;20080;-66
2023/11/10 04:40:27;;;;;;;6.22;1.60;;;;;;;8.61;100.00;99462.47;4935170;29;20066;-67
2023/11/10 04:43:15;;;;;;;6.07;2.05;;;;;;;8.59;100.00;99460.06;4925432;28;20533;-66
2023/11/10 04:46:04;;;;;;;3.03;1.65;;;;;;;8.60;100.00;99460.84;4938878;29;20060;-67
2023/11/10 04:48:52;;;;;;;4.55;1.80;;;;;;;8.60;100.00;99466.28;4936805;29;20413;-67
2023/11/10 04:51:40;;;;;;;4.18;1.80;;;;;;;8.57;100.00;99451.38;4938348;29;20067;-68
2023/11/10 04:54:28;;;;;;;2.80;1.50;;;;;;;8.58;100.00;99452.19;4924630;29;20484;-67
2023/11/10 04:57:17;;;;;;;3.75;1.52;;;;;;;8.58;100.00;99455.72;4939403;28;20508;-68
2023/11/10 05:00:06;;;;;;;3.78;1.50;;;;;;;8.61;100.00;99462.47;4924736;29;20062;-67
2023/11/10 05:02:56;;;;;;;5.10;1.63;;;;;;;8.57;100.00;99456.81;4921177;29;20048;-67
2023/11/10 05:05:48;;;;;;;4.38;1.75;;;;;;;8.52;100.00;99452.25;4937182;28;20052;-67
2023/11/10 05:08:36;;;;;;;4.18;1.83;;;;;;;8.48;100.00;99459.34;4938510;28;20047;-67
2023/11/10 05:11:24;;;;;;;4.82;1.58;;;;;;;8.48;100.00;99453.91;4936629;29;20048;-68
2023/11/10 05:14:12;;;;;;;4.07;1.63;;;;;;;8.48;100.00;99461.25;4937231;29;20056;-68
2023/11/10 05:17:00;;;;;;;5.00;1.77;;;;;;;8.47;100.00;99456.94;4938397;29;20527;-68
2023/11/10 05:19:49;;;;;;;4.80;2.47;;;;;;;8.46;100.00;99466.97;4922987;29;20044;-68
2023/11/10 05:22:39;;;;;;;3.67;1.52;;;;;;;8.44;100.00;99461.03;4936380;29;20051;-67
2023/11/10 05:25:28;;;;;;;4.85;1.95;;;;;;;8.41;100.00;99458.06;4937535;29;20044;-68
2023/11/10 05:28:16;;;;;;;3.35;1.38;;;;;;;8.41;100.00;99450.72;4937562;29;20048;-68
2023/11/10 05:31:04;;;;;;;8.07;1.75;;;;;;;8.39;100.00;99455.59;4937379;29;20048;-67
2023/11/10 05:33:55;;;;;;;4.03;1.88;;;;;;;8.60;100.00;99450.00;4924050;28;20159;-67
2023/11/10 05:36:43;;;;;;;3.28;1.58;;;;;;;8.51;100.00;99453.34;4923044;29;20048;-67
2023/11/10 05:39:31;;;;;;;4.13;1.75;;;;;;;8.68;100.00;99457.50;4941507;29;20052;-67
2023/11/10 05:42:23;;;;;;;4.35;1.73;;;;;;;8.49;100.00;99460.97;4919814;29;20048;-68
2023/11/10 05:45:11;;;;;;;5.90;2.50;;;;;;;8.43;100.00;99466.75;4930317;29;20161;-68
2023/11/10 05:47:59;;;;;;;3.88;1.67;;;;;;;8.35;100.00;99453.78;4904319;29;20395;-68
2023/11/10 05:50:49;;;;;;;3.03;1.35;;;;;;;8.55;100.00;99458.19;4923846;29;20052;-67
2023/11/10 05:53:37;;;;;;;4.65;1.50;;;;;;;8.49;100.00;99460.13;4922652;29;20087;-66
2023/11/10 05:56:25;;;;;;;6.43;2.42;;;;;;;8.32;100.00;99474.13;4918728;29;20040;-66
2023/11/10 05:59:13;;;;;;;4.57;1.83;;;;;;;8.30;100.00;99479.84;4917737;29;20054;-67
2023/11/10 06:02:02;;;;;;;4.15;1.73;;;;;;;8.37;100.00;99476.81;4928399;29;20059;-67
2023/11/10 06:04:52;;;;;;;3.65;1.50;;;;;;;8.52;100.00;99470.44;4940100;29;20713;-66
2023/11/10 06:07:40;;;;;;;7.53;2.30;;;;;;;8.22;100.00;99482.38;4899056;29;20040;-67
2023/11/10 06:10:28;;;;;;;6.90;2.50;;;;;;;8.08;100.00;99476.78;4909871;29;20044;-66
2023/11/10 06:13:16;;;;;;;5.47;2.25;;;;;;;8.02;100.00;99481.44;4937066;29;20052;-67
2023/11/10 06:16:07;;;;;;;8.40;3.15;;;;;;;7.97;100.00;99472.56;4247291;28;9999957;-66
2023/11/10 06:18:56;;;;;;;6.95;2.17;;;;;;;7.95;100.00;99480.16;4927367;29;20610;-67
2023/11/10 06:21:44;;;;;;;9.55;2.28;;;;;;;7.98;100.00;99485.81;4936535;29;20456;-66
2023/11/10 06:24:32;;;;;;;6.68;2.00;;;;;;;8.11;100.00;99487.88;4935312;29;20040;-67
2023/11/10 06:27:21;;;;;;;6.10;1.70;;;;;;;8.16;100.00;99492.47;4923786;29;20048;-68
2023/11/10 06:30:10;;;;;;;5.53;1.77;;;;;;;8.22;100.00;99493.22;4903814;29;20051;-67
2023/11/10 06:32:58;;;;;;;5.50;1.50;;;;;;;8.28;100.00;99492.09;4924952;29;20462;-68
2023/11/10 06:35:47;;;;;;;6.20;2.22;;;;;;;8.43;100.00;99491.16;4944704;29;20413;-67
2023/11/10 06:38:37;;;;;;;4.70;1.63;;;;;;;8.31;100.00;99491.50;4926943;29;20048;-67
2023/11/10 06:41:25;;;;;;;6.25;1.92;;;;;;;8.18;100.00;99492.16;4932395;29;20106;-67
2023/11/10 06:44:18;;;;;;;6.07;2.53;;;;;;;8.41;100.00;99496.06;4933820;28;20051;-67
2023/11/10 06:47:07;;;;;;;2.42;1.30;;;;;;;8.36;100.00;99486.03;4932500;29;20389;-67
2023/11/10 06:49:55;;;;;;;4.07;1.80;;;;;;;8.30;100.00;99496.13;4932842;29;20051;-67
2023/11/10 06:52:44;;;;;;;7.45;2.20;;;;;;;8.45;100.00;99499.84;4915165;29;20427;-67
2023/11/10 06:55:32;;;;;;;6.53;2.30;;;;;;;8.39;100.00;99493.59;4932681;29;20087;-67
2023/11/10 06:58:21;;;;;;;5.07;2.00;;;;;;;8.36;100.00;99505.03;4930327;29;20088;-67
2023/11/10 07:01:10;;;;;;;7.38;1.90;;;;;;;8.35;100.00;99503.44;4930394;29;20099;-67
2023/11/10 07:03:59;;;;;;;8.40;2.38;;;;;;;8.32;100.00;99491.25;4931847;29;20071;-67
2023/11/10 07:06:47;;;;;;;5.93;2.00;;;;;;;8.24;100.00;99496.47;4934433;28;20058;-67
2023/11/10 07:09:36;;;;;;;2.78;1.58;;;;;;;8.53;100.00;99489.16;4901875;29;20100;-67
2023/11/10 07:12:24;;;;;;;3.42;1.55;;;;;;;8.48;100.00;99486.47;4910550;29;20082;-67
2023/11/10 07:15:12;;;;;;;6.18;2.00;;;;;;;8.35;100.00;99486.34;4918350;29;20067;-66
2023/11/10 07:18:00;;;;;;;4.93;1.70;;;;;;;8.33;100.00;99489.31;4929553;29;20398;-67
2023/11/10 07:20:48;;;;;;;4.97;2.40;;;;;;;8.33;100.00;99487.41;4906674;29;20477;-67
2023/11/10 07:23:36;;;;;;;12.38;3.40;;;;;;;8.21;100.00;99486.19;4923466;29;20504;-68
2023/11/10 07:26:24;;;;;;;9.88;2.30;;;;;;;8.32;100.00;99484.97;4933196;29;20047;-66
2023/11/10 07:29:12;;;;;;;3.42;1.90;;;;;;;8.49;100.00;99487.28;4933535;29;20047;-67
2023/11/10 07:32:01;;;;;;;4.63;2.08;;;;;;;8.42;100.00;99476.78;4935034;29;20397;-66
2023/11/10 07:34:50;;;;;;;5.30;1.42;;;;;;;8.55;100.00;99480.72;4934726;29;20118;-66
2023/11/10 07:37:40;;;;;;;3.70;1.63;;;;;;;8.72;100.00;99486.50;4922565;29;20059;-68
2023/11/10 07:40:29;;;;;;;4.70;1.70;;;;;;;8.71;100.00;99478.66;4936426;29;20040;-67
2023/11/10 07:43:17;;;;;;;7.88;2.33;;;;;;;8.57;100.00;99483.97;4937201;29;20044;-65
2023/11/10 07:46:05;;;;;;;6.82;2.30;;;;;;;8.41;100.00;99488.72;4935332;29;20062;-67
2023/11/10 07:48:53;;;;;;;4.43;2.10;;;;;;;8.28;100.00;99490.19;4935092;29;20048;-66
2023/11/10 07:51:41;;;;;;;7.82;2.53;;;;;;;8.21;100.00;99487.00;4915481;29;20059;-67
2023/11/10 07:54:29;;;;;;;10.05;2.13;;;;;;;8.21;100.00;99486.19;4917231;29;20118;-66
2023/11/10 07:57:17;;;;;;;4.95;2.10;;;;;;;8.29;100.00;99494.50;4917856;29;20055;-66
2023/11/10 08:00:06;;;;;;;8.35;2.75;;;;;;;8.28;100.00;99492.91;4934541;29;20058;-66
2023/11/10 08:03:00;;;;;;;6.68;2.30;;;;;;;8.23;100.00;99494.84;4934395;29;20095;-66
2023/11/10 08:05:51;;;;;;;9.98;3.10;;;;;;;8.30;100.00;99498.84;4944011;29;20052;-65
2023/11/10 08:08:39;;;;;;;11.52;3.03;;;;;;;8.27;100.00;99506.75;4948816;29;20119;-64
2023/11/10 08:11:27;;;;;;;9.98;2.80;;;;;;;8.28;100.00;99502.94;4950264;29;20411;-66
2023/11/10 08:14:21;;;;;;;11.57;3.30;;;;;;;8.65;100.00;99490.66;4922020;29;20112;-66
2023/11/10 08:17:11;;;;;;;9.52;3.15;;;;;;;8.44;100.00;99504.47;4946282;29;20052;-66
2023/11/10 08:19:59;;;;;;;7.65;2.40;;;;;;;8.39;100.00;99498.22;4934384;29;20048;-65
2023/11/10 08:22:47;;;;;;;9.13;2.58;;;;;;;8.32;100.00;99498.53;4932949;29;20048;-64
2023/11/10 08:25:35;;;;;;;10.93;2.95;;;;;;;8.31;100.00;99496.94;4945722;29;20079;-65
2023/11/10 08:28:23;;;;;;;11.00;3.50;;;;;;;8.40;100.00;99495.25;4941398;28;20137;-64
2023/11/10 08:31:11;;;;;;;10.60;2.70;;;;;;;8.32;100.00;99493.13;4904939;29;20058;-67
2023/11/10 08:33:59;;;;;;;7.97;2.97;;;;;;;8.35;100.00;99498.00;4935254;29;20142;-66
2023/11/10 08:36:48;;;;;;;10.30;2.60;;;;;;;8.31;100.00;99491.50;4906908;29;20051;-67
2023/11/10 08:39:37;;;;;;;7.75;2.72;;;;;;;8.31;100.00;99486.88;4918877;29;20059;-66
2023/11/10 08:42:25;;;;;;;9.27;3.10;;;;;;;8.42;100.00;99486.81;4921475;29;20636;-67
2023/11/10 08:45:15;;;;;;;9.82;2.97;;;;;;;8.42;100.00;99484.09;4922582;29;20055;-65
2023/11/10 08:48:04;;;;;;;9.93;3.08;;;;;;;8.37;100.00;99475.97;4921455;29;20054;-66
2023/11/10 08:50:52;;;;;;;9.50;2.97;;;;;;;8.36;100.00;99483.31;4934949;29;20095;-66
2023/11/10 08:53:40;;;;;;;6.63;2.72;;;;;;;8.34;100.00;99482.78;4924263;29;20055;-66
2023/11/10 08:56:28;;;;;;;12.27;3.10;;;;;;;8.35;100.00;99476.28;4938040;29;20052;-66
2023/11/10 08:59:16;;;;;;;7.68;3.10;;;;;;;8.38;100.00;99486.56;4926166;29;20146;-66
2023/11/10 09:02:05;;;;;;;9.30;3.42;;;;;;;8.39;100.00;99477.31;4937453;29;20429;-66
2023/11/10 09:04:54;;;;;;;10.68;3.00;;;;;;;8.40;100.00;99478.19;4937782;29;20069;-65
2023/11/10 09:07:42;;;;;;;6.93;2.95;;;;;;;8.41;100.00;99479.78;4916198;29;20531;-65
2023/11/10 09:10:30;;;;;;;8.55;3.13;;;;;;;8.40;100.00;99484.41;4936781;29;20572;-65
2023/11/10 09:13:18;;;;;;;8.68;2.65;;;;;;;8.40;100.00;99470.03;4931712;29;20059;-67
2023/11/10 09:16:06;;;;;;;11.73;3.22;;;;;;;8.48;100.00;99483.78;4914909;29;20139;-67
2023/11/10 09:18:54;;;;;;;10.68;3.10;;;;;;;8.67;100.00;99480.34;4916210;29;20107;-65
2023/11/10 09:21:42;;;;;;;10.90;3.17;;;;;;;8.79;100.00;99479.94;4928748;29;20055;-65
2023/11/10 09:24:30;;;;;;;8.65;2.97;;;;;;;8.74;100.00;99478.06;4921707;29;20059;-65
2023/11/10 09:27:18;;;;;;;9.27;3.30;;;;;;;8.80;100.00;99481.53;4916600;29;20068;-67
2023/11/10 09:30:07;;;;;;;12.32;3.20;;;;;;;8.86;100.00;99475.75;4915170;29;20275;-67
2023/11/10 09:32:56;;;;;;;9.73;3.13;;;;;;;9.10;100.00;99470.31;4917006;29;20043;-66
2023/11/10 09:35:44;;;;;;;8.50;3.00;;;;;;;9.22;100.00;99471.81;4936926;29;20055;-67
2023/11/10 09:38:32;;;;;;;12.35;3.22;;;;;;;8.95;100.00;99475.94;4924473;29;20420;-67
2023/11/10 09:41:25;;;;;;;11.57;3.35;;;;;;;8.91;100.00;99462.13;4912533;29;20187;-66
2023/11/10 09:44:14;;;;;;;10.23;3.08;;;;;;;8.87;100.00;99466.50;4922933;29;20134;-66
2023/11/10 09:47:02;;;;;;;7.72;2.70;;;;;;;8.82;100.00;99461.13;4919301;29;20135;-66
2023/11/10 09:49:51;;;;;;;10.82;3.05;;;;;;;8.78;100.00;99460.13;4931351;29;20056;-66
2023/11/10 09:52:40;;;;;;;9.23;3.17;;;;;;;9.07;100.00;99448.34;4915765;29;20519;-66
2023/11/10 09:55:29;;;;;;;13.52;3.33;;;;;;;8.95;100.00;99457.72;4917887;29;20044;-66
2023/11/10 09:58:18;;;;;;;9.95;2.63;;;;;;;8.99;100.00;99457.13;4910229;29;20459;-66
2023/11/10 10:01:06;;;;;;;10.00;3.00;;;;;;;9.02;100.00;99456.56;4918117;29;20059;-66
2023/11/10 10:03:55;;;;;;;9.82;2.95;;;;;;;8.95;100.00;99451.50;4917566;29;20044;-66
2023/11/10 10:06:43;;;;;;;8.70;2.95;;;;;;;8.94;100.00;99455.28;4915485;29;20176;-66
2023/11/10 10:09:31;;;;;;;9.10;2.95;;;;;;;8.82;100.00;99455.69;4918543;29;20048;-66
2023/11/10 10:12:19;;;;;;;7.30;2.50;;;;;;;8.84;100.00;99448.06;4902680;29;20040;-66
2023/11/10 10:15:10;;;;;;;8.95;2.50;;;;;;;8.90;100.00;99449.66;4915529;29;20453;-66
2023/11/10 10:18:08;;;;;;;8.73;2.65;;;;;;;8.88;100.00;99457.28;4903861;29;20095;-66
2023/11/10 10:21:00;;;;;;;8.02;2.95;;;;;;;8.59;100.00;99461.97;4917607;29;20078;-66
2023/11/10 10:23:49;;;;;;;9.43;2.88;;;;;;;8.42;100.00;99463.22;4917790;29;20048;-67
2023/11/10 10:26:38;;;;;;;10.02;3.10;;;;;;;8.35;100.00;99460.00;4914934;29;20052;-67
2023/11/10 10:29:26;;;;;;;8.35;2.90;;;;;;;8.33;100.00;99456.75;4917300;29;20493;-67
2023/11/10 10:32:14;;;;;;;10.25;2.65;;;;;;;8.43;100.00;99453.16;4890765;29;20099;-67
2023/11/10 10:35:03;;;;;;;8.57;2.70;;;;;;;8.52;100.00;99449.53;4915279;29;20063;-68
2023/11/10 10:37:55;;;;;;;7.65;2.63;;;;;;;8.73;100.00;99449.28;4912816;29;20089;-66
2023/11/10 10:40:44;;;;;;;8.57;3.28;;;;;;;8.82;100.00;99442.13;4907086;29;20515;-66
2023/11/10 10:43:33;;;;;;;9.45;3.08;;;;;;;8.82;100.00;99449.47;4891468;29;20044;-67
2023/11/10 10:46:41;;;;;;;6.43;2.88;;;;;;;8.94;100.00;99445.22;4904638;29;20055;-66
2023/11/10 10:49:29;;;;;;;7.30;2.65;;;;;;;9.02;100.00;99440.25;4901109;29;20520;-67
2023/11/10 10:52:18;;;;;;;9.25;2.78;;;;;;;8.85;100.00;99436.13;4932894;29;20063;-68
2023/11/10 10:55:09;;;;;;;6.97;2.42;;;;;;;8.95;100.00;99432.47;4949248;28;20052;-66
2023/11/10 10:57:58;;;;;;;7.78;2.40;;;;;;;8.94;100.00;99428.94;4936308;28;20514;-65
2023/11/10 11:00:46;;;;;;;5.60;2.13;;;;;;;8.82;100.00;99423.09;4919865;29;20139;-65
2023/11/10 11:04:02;;;;;;;8.60;2.60;;;;;;;8.83;100.00;99429.38;4935833;29;20047;-67
2023/11/10 11:07:21;;;;;;;7.10;2.40;;;;;;;8.98;100.00;99425.66;4934583;29;20099;-67
2023/11/10 11:10:22;;;;;;;7.07;2.25;;;;;;;9.02;100.00;99418.50;4934215;29;20063;-69
2023/11/10 11:13:38;;;;;;;8.60;2.63;;;;;;;8.93;100.00;99424.59;4943544;29;20056;-67
2023/11/10 11:17:01;;;;;;;7.72;2.47;;;;;;;8.65;100.00;99422.78;4924544;28;20048;-67
2023/11/10 11:19:49;;;;;;;8.13;2.90;;;;;;;8.49;100.00;99433.84;4876791;29;20076;-66
2023/11/10 11:22:38;;;;;;;7.43;2.88;;;;;;;8.43;100.00;99428.75;4909876;29;20048;-66
2023/11/10 11:25:26;;;;;;;10.30;3.08;;;;;;;8.39;100.00;99425.75;4935573;29;20047;-66
2023/11/10 11:28:34;;;;;;;9.15;2.65;;;;;;;8.40;100.00;99430.13;4934498;29;20036;-66
2023/11/10 11:31:22;;;;;;;7.40;2.70;;;;;;;8.38;100.00;99423.34;4935558;29;20048;-66
2023/11/10 11:34:13;;;;;;;6.63;2.50;;;;;;;8.37;100.00;99433.38;4930285;29;20123;-68
2023/11/10 11:37:05;;;;;;;7.20;2.60;;;;;;;8.40;100.00;99430.13;4932289;29;20054;-67
2023/11/10 11:39:54;;;;;;;5.43;2.30;;;;;;;8.43;100.00;99431.44;4944510;29;20067;-67
2023/11/10 11:42:42;;;;;;;6.97;2.33;;;;;;;8.42;100.00;99422.50;4933717;29;20055;-67
2023/11/10 11:45:30;;;;;;;8.35;2.88;;;;;;;8.40;100.00;99424.69;4936695;29;20048;-67
2023/11/10 11:48:20;;;;;;;5.93;2.30;;;;;;;8.40;100.00;99430.13;4930478;29;20059;-66
2023/11/10 11:51:09;;;;;;;5.35;2.13;;;;;;;8.50;100.00;99432.72;4935117;29;20570;-66
2023/11/10 11:53:57;;;;;;;5.43;2.40;;;;;;;8.62;100.00;99426.88;4919916;29;20138;-66
2023/11/10 11:56:45;;;;;;;10.63;4.57;;;;;;;8.77;100.00;99430.53;4935170;29;20055;-66
2023/11/10 11:59:34;;;;;;;10.30;4.43;;;;;;;8.73;100.00;99430.28;4930303;29;20142;-67
2023/11/10 12:02:23;;;;;;;26.70;13.67;;;;;;;8.89;100.00;99429.00;4235156;29;10000850;-66
2023/11/10 12:05:13;;;;;;;37.65;20.17;;;;;;;9.01;100.00;99425.06;4930409;29;20311;-66
2023/11/10 12:08:02;;;;;;;57.97;29.25;;;;;;;9.01;100.00;99416.91;4930888;29;20055;-68
2023/11/10 12:10:50;;;;;;;88.65;49.95;;;;;;;9.12;100.00;99429.25;4904310;29;20518;-66
2023/11/10 12:13:38;;;;;;;19.88;10.75;;;;;;;9.01;100.00;99425.88;4931343;28;20123;-65
2023/11/10 12:16:28;;;;;;;15.95;7.82;;;;;;;8.86;100.00;99428.78;4928766;29;20075;-66
2023/11/10 12:19:26;;;;;;;21.88;11.25;;;;;;;8.80;100.00;99435.38;4923510;29;20040;-65
2023/11/10 12:22:16;;;;;;;84.72;48.40;;;;;;;8.84;100.00;99422.84;4917546;29;20082;-66
2023/11/10 12:25:06;;;;;;;41.15;23.83;;;;;;;8.85;100.00;99419.00;4919198;29;20235;-66
2023/11/10 12:27:58;;;;;;;115.65;63.20;;;;;;;9.01;100.00;99411.47;4911772;29;20442;-66
2023/11/10 12:30:46;;;;;;;50.85;29.40;;;;;;;9.10;100.00;99415.97;4949528;29;20055;-66
2023/11/10 12:33:34;;;;;;;62.20;32.72;;;;;;;9.11;100.00;99412.13;4928662;29;20048;-65
2023/11/10 12:36:22;;;;;;;51.03;29.98;;;;;;;9.03;100.00;99414.72;4920021;29;20123;-66
2023/11/10 12:39:17;;;;;;;61.97;35.35;;;;;;;8.98;100.00;99414.78;4949305;29;20068;-65
2023/11/10 12:42:08;;;;;;;93.68;57.70;;;;;;;9.02;100.00;99421.22;4933928;29;20059;-66
2023/11/10 12:44:56;;;;;;;87.55;49.85;;;;;;;9.10;100.00;99410.53;4935968;29;20130;-67
2023/11/10 12:47:49;;;;;;;49.08;30.63;;;;;;;9.03;100.00;99412.78;4932680;29;20127;-65
2023/11/10 12:50:52;;;;;;;44.55;24.67;;;;;;;8.90;100.00;99417.06;4920332;29;20095;-66
2023/11/10 12:53:40;;;;;;;73.32;44.13;;;;;;;9.06;100.00;99406.78;4916129;29;20052;-66
2023/11/10 12:56:30;;;;;;;108.25;63.20;;;;;;;9.26;100.00;99422.00;4931709;29;20050;-66
2023/11/10 12:59:29;;;;;;;60.45;34.42;;;;;;;9.15;100.00;99417.81;4929794;29;20048;-66
2023/11/10 13:02:18;;;;;;;126.38;74.72;;;;;;;9.12;100.00;99418.41;4927770;29;20059;-65
2023/11/10 13:05:07;;;;;;;84.38;50.13;;;;;;;9.07;100.00;99426.63;4925659;29;20047;-65
2023/11/10 13:07:55;;;;;;;61.45;36.63;;;;;;;9.08;100.00;99420.88;4924831;29;20107;-65
2023/11/10 13:10:44;;;;;;;56.63;34.58;;;;;;;9.01;100.00;99433.22;4937015;29;20054;-65
2023/11/10 13:13:32;;;;;;;65.60;35.67;;;;;;;8.99;100.00;99441.63;4931535;29;20048;-67
2023/11/10 13:16:22;;;;;;;62.72;36.05;;;;;;;9.04;100.00;99438.06;4920026;29;20687;-67